CYQQ

Comox Airport

Comox, , Canada
METAR CYQQ 240700Z 32004KT 20SM FEW080 FEW170 SCT210 17/12 A2983 RMK AC1AC2CI2 SLP102
Observed Flight Rules
May-24 @ 07:00 UTC (an hour ago) Visual Flight Rules
Wind Visibility Clouds
320° at 4 knots 20 miles
  • Few at 8,000' AGL
  • Few at 17,000' AGL
  • Scattered at 21,000' AGL
Temperatures Readings
Current 17°C / 63°F
Dewpoint 12°C / 54°F
Humidity 73%
Altimeter 29.83" Hg
Pressure 1010.2 hPa
Elevation 24
METAR CYQQ 240700Z 32004KT 20SM FEW080 FEW170 SCT210 17/12 A2983 RMK AC1AC2CI2 SLP102
Observed Flight Rules
May-24 @ 07:00 UTC
(an hour ago)
VFR
Wind Visibility
320° at 4 knots 20 miles
Clouds
  • Few at 8,000' AGL
  • Few at 17,000' AGL
  • Scattered at 21,000' AGL
Temperature Dewpoint
17°C / 63°F 12°C / 54°F
Humidity Altimeter Pressure
73% 29.83" Hg 1010.2 hPa